createdAt,value
2018-09-15T00:00:21.953Z,59.10
2018-09-15T00:02:52.685Z,58.80
2018-09-15T00:05:22.138Z,59.10
2018-09-15T00:07:51.467Z,59.00
2018-09-15T00:10:20.794Z,59.00
2018-09-15T00:12:50.248Z,58.90
2018-09-15T00:15:19.610Z,58.90
2018-09-15T00:17:49.442Z,58.80
2018-09-15T00:20:18.994Z,58.80
2018-09-15T00:22:48.322Z,58.70
2018-09-15T00:25:17.622Z,58.70
2018-09-15T00:27:46.951Z,58.50
2018-09-15T00:30:16.326Z,58.50
2018-09-15T00:32:45.650Z,58.50
2018-09-15T00:35:14.974Z,58.40
2018-09-15T00:37:44.478Z,58.30
2018-09-15T00:40:13.842Z,58.30
2018-09-15T00:42:43.158Z,58.30
2018-09-15T00:45:12.504Z,58.30
2018-09-15T00:47:41.860Z,58.40
2018-09-15T00:50:11.252Z,58.40
2018-09-15T00:52:40.841Z,58.30
2018-09-15T00:55:10.148Z,58.30
2018-09-15T00:57:39.442Z,58.20
2018-09-15T01:00:09.308Z,58.20
2018-09-15T01:02:38.637Z,58.30
2018-09-15T01:05:07.967Z,58.20
2018-09-15T01:07:37.276Z,58.10
2018-09-15T01:10:07.497Z,58.10
2018-09-15T01:12:37.171Z,58.10
2018-09-15T01:15:06.542Z,58.10
2018-09-15T01:17:35.885Z,58.00
2018-09-15T01:20:05.233Z,58.00
2018-09-15T01:22:34.582Z,58.00
2018-09-15T01:25:03.897Z,57.80
2018-09-15T01:27:33.217Z,57.90
2018-09-15T01:30:02.530Z,57.80
2018-09-15T01:32:31.897Z,57.70
2018-09-15T01:35:01.192Z,57.70
2018-09-15T01:37:30.532Z,57.70
2018-09-15T01:39:59.835Z,57.70
2018-09-15T01:42:29.255Z,57.60
2018-09-15T01:44:58.589Z,57.70
2018-09-15T01:47:27.917Z,57.60
2018-09-15T01:49:57.331Z,57.60
2018-09-15T01:52:26.850Z,57.70
2018-09-15T01:54:56.184Z,57.60
2018-09-15T01:57:25.592Z,57.60
2018-09-15T01:59:54.920Z,57.50
2018-09-15T02:02:24.227Z,57.50
2018-09-15T02:04:53.517Z,57.60
2018-09-15T02:07:22.820Z,57.50
2018-09-15T02:09:52.141Z,57.50
2018-09-15T02:12:21.541Z,57.60
2018-09-15T02:14:50.879Z,57.50
2018-09-15T02:17:20.209Z,57.40
2018-09-15T02:19:49.498Z,57.40
2018-09-15T02:22:18.933Z,57.50
2018-09-15T02:24:48.234Z,57.60
2018-09-15T02:27:17.541Z,57.60
2018-09-15T02:29:47.103Z,57.50
2018-09-15T02:32:16.447Z,57.40
2018-09-15T02:34:45.797Z,57.40
2018-09-15T02:37:15.109Z,57.30
2018-09-15T02:39:44.420Z,57.30
2018-09-15T02:42:13.774Z,57.30
2018-09-15T02:44:43.147Z,57.40
2018-09-15T02:47:12.500Z,57.30
2018-09-15T02:49:41.828Z,57.40
2018-09-15T02:52:11.160Z,57.40
2018-09-15T02:54:40.579Z,57.40
2018-09-15T02:57:09.932Z,57.30
2018-09-15T02:59:39.257Z,57.30
2018-09-15T03:02:08.657Z,57.20
2018-09-15T03:04:38.021Z,57.30
2018-09-15T03:07:07.341Z,57.30
2018-09-15T03:09:36.657Z,57.20
2018-09-15T03:12:06.084Z,57.30
2018-09-15T03:14:35.419Z,57.30
2018-09-15T03:17:04.764Z,57.30
2018-09-15T03:19:34.621Z,57.30
2018-09-15T03:22:03.981Z,57.30
2018-09-15T03:24:33.307Z,57.30
2018-09-15T03:27:02.666Z,57.30
2018-09-15T03:29:32.004Z,57.30
2018-09-15T03:32:01.402Z,57.30
2018-09-15T03:34:30.814Z,57.30
2018-09-15T03:37:00.145Z,57.30
2018-09-15T03:39:29.473Z,57.30
2018-09-15T03:41:58.882Z,57.40
2018-09-15T03:44:28.170Z,57.50
2018-09-15T03:46:57.465Z,57.40
2018-09-15T03:49:26.798Z,57.40
2018-09-15T03:51:56.336Z,57.40
2018-09-15T03:54:25.670Z,57.60
2018-09-15T03:56:54.996Z,57.80
2018-09-15T03:59:24.494Z,57.80
2018-09-15T04:01:53.930Z,58.00
2018-09-15T04:04:23.415Z,57.90
2018-09-15T04:06:52.993Z,58.00
2018-09-15T04:09:22.606Z,58.30
2018-09-15T04:11:52.206Z,58.30
2018-09-15T04:14:21.871Z,58.30
2018-09-15T04:16:51.348Z,58.60
2018-09-15T04:19:20.758Z,58.30
2018-09-15T04:21:50.286Z,58.60
2018-09-15T04:24:19.774Z,58.60
2018-09-15T04:26:49.189Z,58.60
2018-09-15T04:29:18.688Z,58.60
2018-09-15T04:31:48.232Z,58.50
2018-09-15T04:34:17.624Z,58.50
2018-09-15T04:36:54.033Z,58.80
2018-09-15T04:39:23.480Z,59.10
2018-09-15T04:41:52.955Z,58.90
2018-09-15T04:44:22.351Z,59.10
2018-09-15T04:46:51.832Z,59.10
2018-09-15T04:49:21.264Z,58.60
2018-09-15T04:51:50.855Z,58.90
2018-09-15T04:54:20.379Z,59.00
2018-09-15T04:56:49.821Z,59.20
2018-09-15T04:59:19.228Z,59.20
2018-09-15T05:01:48.785Z,59.00
2018-09-15T05:04:18.360Z,59.10
2018-09-15T05:06:47.829Z,59.50
2018-09-15T05:09:17.301Z,58.90
2018-09-15T05:11:46.817Z,59.30
2018-09-15T05:14:16.275Z,59.40
2018-09-15T05:16:45.808Z,59.70
2018-09-15T05:19:15.265Z,59.30
2018-09-15T05:21:44.695Z,59.70
2018-09-15T05:24:20.679Z,59.70
2018-09-15T05:26:50.133Z,59.40
2018-09-15T05:29:19.528Z,59.30
2018-09-15T05:31:49.192Z,59.30
2018-09-15T05:34:21.513Z,59.20
2018-09-15T05:36:51.212Z,59.40
2018-09-15T05:39:20.785Z,59.20
2018-09-15T05:41:50.425Z,59.20
2018-09-15T05:44:19.823Z,59.00
2018-09-15T05:46:49.244Z,59.00
2018-09-15T05:49:18.734Z,58.90
2018-09-15T05:51:48.283Z,59.10
2018-09-15T05:54:17.699Z,59.00
2018-09-15T05:56:47.134Z,59.00
2018-09-15T05:59:17.010Z,59.20
2018-09-15T06:01:46.591Z,58.80
2018-09-15T06:04:17.208Z,58.80
2018-09-15T06:06:46.709Z,59.00
2018-09-15T06:09:16.220Z,59.10
2018-09-15T06:11:45.884Z,59.20
2018-09-15T06:14:15.260Z,59.20
2018-09-15T06:16:44.747Z,59.20
2018-09-15T06:19:14.422Z,58.90
2018-09-15T06:21:44.031Z,59.00
2018-09-15T06:24:13.459Z,59.00
2018-09-15T06:26:43.034Z,59.00
2018-09-15T06:29:12.521Z,59.50
2018-09-15T06:31:42.590Z,59.30
2018-09-15T06:34:12.026Z,59.70
2018-09-15T06:36:41.475Z,59.30
2018-09-15T06:39:11.481Z,59.30
2018-09-15T06:41:41.126Z,59.30
2018-09-15T06:44:10.581Z,59.30
2018-09-15T06:46:40.973Z,59.20
2018-09-15T06:49:10.444Z,59.40
2018-09-15T06:51:39.924Z,59.50
2018-09-15T06:54:09.671Z,59.70
2018-09-15T06:56:39.128Z,59.50
2018-09-15T06:59:08.599Z,59.40
2018-09-15T07:01:40.950Z,59.70
2018-09-15T07:04:12.339Z,59.50
2018-09-15T07:06:42.184Z,60.00
2018-09-15T07:09:13.315Z,59.80
2018-09-15T07:11:42.928Z,59.90
2018-09-15T07:14:12.441Z,59.70
2018-09-15T07:16:41.910Z,60.00
2018-09-15T07:19:11.355Z,59.40
2018-09-15T07:21:40.968Z,59.90
2018-09-15T07:24:10.440Z,59.90
2018-09-15T07:26:39.952Z,59.50
2018-09-15T07:29:09.438Z,59.90
2018-09-15T07:31:38.889Z,59.50
2018-09-15T07:34:08.343Z,59.50
2018-09-15T07:36:37.921Z,59.30
2018-09-15T07:39:09.931Z,59.30
2018-09-15T07:41:39.608Z,59.20
2018-09-15T07:44:09.097Z,59.40
2018-09-15T07:46:39.444Z,59.20
2018-09-15T07:49:08.888Z,59.00
2018-09-15T07:51:38.434Z,59.00
2018-09-15T07:54:07.847Z,58.90
2018-09-15T07:56:37.263Z,58.80
2018-09-15T07:59:06.729Z,58.70
2018-09-15T08:01:36.198Z,58.50
2018-09-15T08:04:05.727Z,58.60
2018-09-15T08:06:35.508Z,59.60
2018-09-15T08:09:05.759Z,58.70
2018-09-15T08:11:36.021Z,58.20
2018-09-15T08:14:05.468Z,58.00
2018-09-15T08:16:34.865Z,57.80
2018-09-15T08:19:04.337Z,57.70
2018-09-15T08:21:33.792Z,57.60
2018-09-15T08:24:03.275Z,57.40
2018-09-15T08:26:32.690Z,57.30
2018-09-15T08:29:02.099Z,57.60
2018-09-15T08:31:31.601Z,57.60
2018-09-15T08:34:01.040Z,57.70
2018-09-15T08:36:30.392Z,57.70
2018-09-15T08:38:59.816Z,57.80
2018-09-15T08:41:29.474Z,57.60
2018-09-15T08:43:58.913Z,58.00
2018-09-15T08:46:28.345Z,58.60
2018-09-15T08:48:57.781Z,58.50
2018-09-15T08:51:27.456Z,58.50
2018-09-15T08:53:56.850Z,58.80
2018-09-15T08:56:26.344Z,59.00
2018-09-15T08:58:55.721Z,59.60
2018-09-15T09:01:27.234Z,58.90
2018-09-15T09:03:56.791Z,59.20
2018-09-15T09:06:26.286Z,59.30
2018-09-15T09:08:55.739Z,59.30
2018-09-15T09:11:25.259Z,59.40
2018-09-15T09:13:54.913Z,59.70
2018-09-15T09:16:24.389Z,59.30
2018-09-15T09:18:53.876Z,57.90
2018-09-15T09:21:23.350Z,57.10
2018-09-15T09:23:52.915Z,57.60
2018-09-15T09:26:22.348Z,58.00
2018-09-15T09:28:51.755Z,58.30
2018-09-15T09:31:21.325Z,58.10
2018-09-15T09:33:50.747Z,57.60
2018-09-15T09:36:20.228Z,57.60
2018-09-15T09:38:49.711Z,57.60
2018-09-15T09:41:19.351Z,56.80
2018-09-15T09:43:49.087Z,57.70
2018-09-15T09:46:18.657Z,57.60
2018-09-15T09:48:48.108Z,57.20
2018-09-15T09:51:17.645Z,58.00
2018-09-15T09:53:47.052Z,57.80
2018-09-15T09:56:16.613Z,57.30
2018-09-15T09:58:46.104Z,57.50
2018-09-15T10:01:20.916Z,57.40
2018-09-15T10:03:50.464Z,57.10
2018-09-15T10:06:19.980Z,57.20
2018-09-15T10:08:49.402Z,57.50
2018-09-15T10:11:19.118Z,56.30
2018-09-15T10:13:48.742Z,57.30
2018-09-15T10:16:18.240Z,57.60
2018-09-15T10:18:47.712Z,57.10
2018-09-15T10:21:17.307Z,57.70
2018-09-15T10:23:46.745Z,57.40
2018-09-15T10:26:16.315Z,57.40
2018-09-15T10:28:45.804Z,57.30
2018-09-15T10:31:15.423Z,56.90
2018-09-15T10:33:44.888Z,57.10
2018-09-15T10:36:14.403Z,56.90
2018-09-15T10:38:43.872Z,56.40
2018-09-15T10:41:13.527Z,55.70
2018-09-15T10:43:42.938Z,55.60
2018-09-15T10:46:12.480Z,55.60
2018-09-15T10:48:41.955Z,56.10
2018-09-15T10:51:11.537Z,55.90
2018-09-15T10:53:40.996Z,56.20
2018-09-15T10:56:10.440Z,55.90
2018-09-15T10:58:39.881Z,55.20
2018-09-15T11:01:09.391Z,55.60
2018-09-15T11:03:38.811Z,55.60
2018-09-15T11:06:08.260Z,55.20
2018-09-15T11:08:37.800Z,55.30
2018-09-15T11:11:07.310Z,55.70
2018-09-15T11:13:36.846Z,55.30
2018-09-15T11:16:06.177Z,55.20
2018-09-15T11:18:35.618Z,55.30
2018-09-15T11:21:05.076Z,55.30
2018-09-15T11:23:34.816Z,54.90
2018-09-15T11:26:04.830Z,54.90
2018-09-15T11:28:34.374Z,55.00
2018-09-15T11:31:03.865Z,55.30
2018-09-15T11:33:33.408Z,55.30
2018-09-15T11:36:02.881Z,55.60
2018-09-15T11:38:32.381Z,55.90
2018-09-15T11:41:01.925Z,56.20
2018-09-15T11:43:31.420Z,56.40
2018-09-15T11:46:01.680Z,56.60
2018-09-15T11:48:31.124Z,56.70
2018-09-15T11:51:00.616Z,56.90
2018-09-15T11:53:30.082Z,56.90
2018-09-15T11:55:59.528Z,57.10
2018-09-15T11:58:29.011Z,57.20
2018-09-15T12:01:00.768Z,57.30
2018-09-15T12:03:30.496Z,58.00
2018-09-15T12:05:59.918Z,57.50
2018-09-15T12:08:29.336Z,57.60
2018-09-15T12:10:58.887Z,57.60
2018-09-15T12:13:28.396Z,57.70
2018-09-15T12:15:57.857Z,57.90
2018-09-15T12:18:27.257Z,57.90
2018-09-15T12:20:56.810Z,58.10
2018-09-15T12:23:26.201Z,58.00
2018-09-15T12:25:55.709Z,58.20
2018-09-15T12:28:25.112Z,58.10
2018-09-15T12:30:54.623Z,58.30
2018-09-15T12:33:24.231Z,58.30
2018-09-15T12:35:53.734Z,58.30
2018-09-15T12:38:23.459Z,58.50
2018-09-15T12:40:53.140Z,58.50
2018-09-15T12:43:22.633Z,58.50
2018-09-15T12:45:52.051Z,58.70
2018-09-15T12:48:21.583Z,58.50
2018-09-15T12:50:51.063Z,58.70
2018-09-15T12:53:20.651Z,58.70
2018-09-15T12:55:50.101Z,58.70
2018-09-15T12:58:19.583Z,58.80
2018-09-15T13:00:49.614Z,59.00
2018-09-15T13:03:19.116Z,59.00
2018-09-15T13:05:48.588Z,58.80
2018-09-15T13:08:18.332Z,58.80
2018-09-15T13:10:47.834Z,59.00
2018-09-15T13:13:17.270Z,59.00
2018-09-15T13:15:46.824Z,59.10
2018-09-15T13:18:16.215Z,59.00
2018-09-15T13:20:45.789Z,59.10
2018-09-15T13:23:15.271Z,59.10
2018-09-15T13:25:44.697Z,59.10
2018-09-15T13:28:14.088Z,59.10
2018-09-15T13:30:43.578Z,59.10
2018-09-15T13:33:13.092Z,59.10
2018-09-15T13:35:42.605Z,59.20
2018-09-15T13:38:12.040Z,59.00
2018-09-15T13:40:42.615Z,59.10
2018-09-15T13:43:12.091Z,59.30
2018-09-15T13:45:41.521Z,59.60
2018-09-15T13:48:11.081Z,59.40
2018-09-15T13:50:40.549Z,59.40
2018-09-15T13:53:10.030Z,59.40
2018-09-15T13:55:39.499Z,59.40
2018-09-15T13:58:08.983Z,59.40
2018-09-15T14:00:38.453Z,59.60
2018-09-15T14:03:14.535Z,59.50
2018-09-15T14:05:44.022Z,59.80
2018-09-15T14:08:13.587Z,59.80
2018-09-15T14:10:43.347Z,59.90
2018-09-15T14:13:12.809Z,59.60
2018-09-15T14:15:42.453Z,60.40
2018-09-15T14:18:12.207Z,59.70
2018-09-15T14:20:41.894Z,59.70
2018-09-15T14:23:11.662Z,59.80
2018-09-15T14:25:41.153Z,60.00
2018-09-15T14:28:10.589Z,59.90
2018-09-15T14:30:40.107Z,60.10
2018-09-15T14:33:09.888Z,60.00
2018-09-15T14:35:39.891Z,60.10
2018-09-15T14:38:09.352Z,60.00
2018-09-15T14:40:38.947Z,60.00
2018-09-15T14:43:08.708Z,60.30
2018-09-15T14:45:39.294Z,60.20
2018-09-15T14:48:08.755Z,60.10
2018-09-15T14:50:38.219Z,60.20
2018-09-15T14:53:07.622Z,60.50
2018-09-15T14:55:37.422Z,60.40
2018-09-15T14:58:07.398Z,60.40
2018-09-15T15:00:36.961Z,60.30
2018-09-15T15:03:08.482Z,60.40
2018-09-15T15:05:37.884Z,60.40
2018-09-15T15:08:07.550Z,60.50
2018-09-15T15:10:37.056Z,60.70
2018-09-15T15:13:06.560Z,60.60
2018-09-15T15:15:36.094Z,60.70
2018-09-15T15:18:05.544Z,60.20
2018-09-15T15:20:35.071Z,60.50
2018-09-15T15:23:04.436Z,60.80
2018-09-15T15:25:33.900Z,61.10
2018-09-15T15:28:03.321Z,61.10
2018-09-15T15:30:32.797Z,61.20
2018-09-15T15:33:02.191Z,61.30
2018-09-15T15:35:31.636Z,61.10
2018-09-15T15:38:01.032Z,61.00
2018-09-15T15:40:30.977Z,60.90
2018-09-15T15:43:00.502Z,60.90
2018-09-15T15:45:29.949Z,60.30
2018-09-15T15:47:59.379Z,59.10
2018-09-15T15:50:28.909Z,58.70
2018-09-15T15:52:58.404Z,59.90
2018-09-15T15:55:27.884Z,60.80
2018-09-15T15:57:57.371Z,61.00
2018-09-15T16:00:27.008Z,61.10
2018-09-15T16:02:56.669Z,61.10
2018-09-15T16:05:26.085Z,61.20
2018-09-15T16:07:55.733Z,61.30
2018-09-15T16:10:25.398Z,61.40
2018-09-15T16:12:54.833Z,61.40
2018-09-15T16:25:27.160Z,61.40
2018-09-15T16:31:11.498Z,61.50
2018-09-15T16:33:40.902Z,61.70
2018-09-15T16:36:10.332Z,61.80
2018-09-15T16:38:39.821Z,61.90
2018-09-15T16:41:09.367Z,62.00
2018-09-15T16:43:38.765Z,62.00
2018-09-15T16:46:08.199Z,62.10
2018-09-15T16:48:37.622Z,62.20
2018-09-15T16:51:07.302Z,62.00
2018-09-15T16:53:36.683Z,61.60
2018-09-15T16:56:06.173Z,61.60
2018-09-15T16:58:35.771Z,60.90
2018-09-15T17:01:05.216Z,58.80
2018-09-15T17:03:34.700Z,57.40
2018-09-15T17:06:04.069Z,60.10
2018-09-15T17:08:33.734Z,59.90
2018-09-15T17:11:03.304Z,59.70
2018-09-15T17:13:32.758Z,57.60
2018-09-15T17:16:02.221Z,55.90
2018-09-15T17:18:31.756Z,55.00
2018-09-15T17:21:01.313Z,54.70
2018-09-15T17:23:30.901Z,55.30
2018-09-15T17:26:00.625Z,55.40
2018-09-15T17:28:30.155Z,55.70
2018-09-15T17:30:59.697Z,53.60
2018-09-15T17:33:29.268Z,53.70
2018-09-15T17:35:58.713Z,53.60
2018-09-15T17:38:28.208Z,55.10
2018-09-15T17:40:57.740Z,54.60
2018-09-15T17:43:27.286Z,54.30
2018-09-15T17:45:57.502Z,55.80
2018-09-15T17:48:27.029Z,53.40
2018-09-15T17:50:56.705Z,54.10
2018-09-15T17:53:26.210Z,54.70
2018-09-15T17:55:55.696Z,56.40
2018-09-15T17:58:25.318Z,57.00
2018-09-15T18:00:54.974Z,57.50
2018-09-15T18:03:24.733Z,58.10
2018-09-15T18:05:54.518Z,58.90
2018-09-15T18:08:24.086Z,59.80
2018-09-15T18:10:53.692Z,60.50
2018-09-15T18:13:23.293Z,60.20
2018-09-15T18:15:53.008Z,60.70
2018-09-15T18:18:22.761Z,61.20
2018-09-15T18:20:52.374Z,61.40
2018-09-15T18:23:22.001Z,61.10
2018-09-15T18:25:52.024Z,60.20
2018-09-15T18:28:21.637Z,61.30
2018-09-15T18:30:51.197Z,60.90
2018-09-15T18:33:20.744Z,60.40
2018-09-15T18:35:50.239Z,60.20
2018-09-15T18:38:19.773Z,60.70
2018-09-15T18:40:49.361Z,61.20
2018-09-15T18:43:19.251Z,59.90
2018-09-15T18:45:48.975Z,60.30
2018-09-15T18:48:18.850Z,60.80
2018-09-15T18:50:48.666Z,60.20
2018-09-15T18:53:19.028Z,60.60
2018-09-15T18:55:48.641Z,60.50
2018-09-15T18:58:48.158Z,60.60
2018-09-15T19:01:17.451Z,60.70
2018-09-15T19:03:46.783Z,60.30
2018-09-15T19:06:16.032Z,61.10
2018-09-15T19:08:45.379Z,61.10
2018-09-15T19:11:14.684Z,61.40
2018-09-15T19:13:43.937Z,61.30
2018-09-15T19:16:13.436Z,61.60
2018-09-15T19:18:42.924Z,61.60
2018-09-15T19:21:12.596Z,61.60
2018-09-15T19:23:42.049Z,61.60
2018-09-15T19:26:11.448Z,61.50
2018-09-15T19:28:40.863Z,61.50
2018-09-15T19:31:10.342Z,61.60
2018-09-15T19:33:39.862Z,61.60
2018-09-15T19:36:10.074Z,61.50
2018-09-15T19:38:39.526Z,61.70
2018-09-15T19:41:09.016Z,61.60
2018-09-15T19:43:38.455Z,61.50
2018-09-15T19:46:07.907Z,61.60
2018-09-15T19:48:37.363Z,61.40
2018-09-15T19:51:06.942Z,61.40
2018-09-15T19:53:36.361Z,61.60
2018-09-15T19:56:05.829Z,55.20
2018-09-15T19:58:35.535Z,50.60
2018-09-15T20:01:04.967Z,50.40
2018-09-15T20:03:34.518Z,51.10
2018-09-15T20:06:04.004Z,51.50
2018-09-15T20:08:34.217Z,51.50
2018-09-15T20:11:03.645Z,51.70
2018-09-15T20:13:33.243Z,51.50
2018-09-15T20:16:01.148Z,52.40
2018-09-15T20:18:29.060Z,52.70
2018-09-15T20:20:56.835Z,53.00
2018-09-15T20:23:26.631Z,52.20
2018-09-15T20:25:55.888Z,51.70
2018-09-15T20:28:25.340Z,50.70
2018-09-15T20:30:55.182Z,50.10
2018-09-15T20:33:25.072Z,50.20
2018-09-15T20:35:54.706Z,50.40
2018-09-15T20:38:24.514Z,50.50
2018-09-15T20:40:54.257Z,51.00
2018-09-15T20:43:23.953Z,51.40
2018-09-15T20:45:53.696Z,51.60
2018-09-15T20:48:25.366Z,52.10
2018-09-15T20:50:55.227Z,52.30
2018-09-15T20:53:25.042Z,52.60
2018-09-15T20:55:54.981Z,53.00
2018-09-15T20:58:24.751Z,52.90
2018-09-15T21:00:54.246Z,53.10
2018-09-15T21:03:23.480Z,53.60
2018-09-15T21:05:52.663Z,53.70
2018-09-15T21:08:21.855Z,54.20
2018-09-15T21:10:51.130Z,54.50
2018-09-15T21:13:20.322Z,54.50
2018-09-15T21:15:49.500Z,55.00
2018-09-15T21:18:19.104Z,55.20
2018-09-15T21:20:48.410Z,55.40
2018-09-15T21:23:17.610Z,55.50
2018-09-15T21:25:46.800Z,55.20
2018-09-15T21:28:16.075Z,55.60
2018-09-15T21:30:45.255Z,55.60
2018-09-15T21:33:14.452Z,55.70
2018-09-15T21:35:43.698Z,55.80
2018-09-15T21:38:12.960Z,55.60
2018-09-15T21:40:42.144Z,56.00
2018-09-15T21:43:11.494Z,55.80
2018-09-15T21:45:40.677Z,56.30
2018-09-15T21:48:09.951Z,55.90
2018-09-15T21:50:39.161Z,56.20
2018-09-15T21:53:08.340Z,56.20
2018-09-15T21:55:37.543Z,56.20
2018-09-15T21:58:06.989Z,56.40
2018-09-15T22:00:36.189Z,56.40
2018-09-15T22:03:05.418Z,56.60
2018-09-15T22:05:34.609Z,56.70
2018-09-15T22:08:03.888Z,56.60
2018-09-15T22:10:33.086Z,56.50
2018-09-15T22:13:02.281Z,56.60
2018-09-15T22:15:31.480Z,56.60
2018-09-15T22:18:00.744Z,57.10
2018-09-15T22:20:29.936Z,56.70
2018-09-15T22:22:59.124Z,57.10
2018-09-15T22:25:28.328Z,57.80
2018-09-15T22:27:57.525Z,56.90
2018-09-15T22:30:26.723Z,57.10
2018-09-15T22:32:55.913Z,56.90
2018-09-15T22:35:25.123Z,57.20
2018-09-15T22:37:54.522Z,57.30
2018-09-15T22:40:23.804Z,57.70
2018-09-15T22:42:52.984Z,57.40
2018-09-15T22:45:22.224Z,57.60
2018-09-15T22:47:51.432Z,57.50
2018-09-15T22:50:20.663Z,56.90
2018-09-15T22:52:49.859Z,57.80
2018-09-15T22:55:19.112Z,57.80
2018-09-15T22:57:48.309Z,57.70
2018-09-15T23:00:17.585Z,57.60
2018-09-15T23:02:46.791Z,57.80
2018-09-15T23:05:15.982Z,57.80
2018-09-15T23:07:45.201Z,57.70
2018-09-15T23:10:14.397Z,57.90
2018-09-15T23:12:49.840Z,57.60
2018-09-15T23:15:19.323Z,57.80
2018-09-15T23:17:48.751Z,57.80
2018-09-15T23:20:17.971Z,57.80
2018-09-15T23:22:47.265Z,57.90
2018-09-15T23:25:16.453Z,58.00
2018-09-15T23:27:45.693Z,57.80
2018-09-15T23:30:14.888Z,57.80
2018-09-15T23:32:44.093Z,58.00
2018-09-15T23:35:13.288Z,58.20
2018-09-15T23:37:42.561Z,58.10
2018-09-15T23:40:11.792Z,58.10
2018-09-15T23:42:41.005Z,58.20
2018-09-15T23:45:10.213Z,58.40
2018-09-15T23:47:39.439Z,58.20
2018-09-15T23:50:08.681Z,58.60
2018-09-15T23:52:37.906Z,58.80
2018-09-15T23:55:07.138Z,58.30
2018-09-15T23:57:36.485Z,58.20
